sensor_id;sensor_type;location;lat;lon;timestamp;pressure;altitude;pressure_sealevel;temperature;humidity
21877;BME280;11103;43.788;23.710;2022-09-02T00:04:45;96841.13;;;19.81;100.00
21877;BME280;11103;43.788;23.710;2022-09-02T00:07:11;92668.84;;;19.85;100.00
21877;BME280;11103;43.788;23.710;2022-09-02T00:09:37;94124.50;;;19.79;100.00
21877;BME280;11103;43.788;23.710;2022-09-02T00:12:05;93749.63;;;19.75;100.00
21877;BME280;11103;43.788;23.710;2022-09-02T00:17:35;91927.44;;;19.66;100.00
21877;BME280;11103;43.788;23.710;2022-09-02T00:20:01;86897.97;;;19.66;100.00
21877;BME280;11103;43.788;23.710;2022-09-02T00:22:28;83934.97;;;19.71;100.00
21877;BME280;11103;43.788;23.710;2022-09-02T00:24:54;78898.88;;;19.81;100.00
21877;BME280;11103;43.788;23.710;2022-09-02T00:27:19;78178.47;;;19.78;100.00
21877;BME280;11103;43.788;23.710;2022-09-02T00:29:45;79663.34;;;19.84;100.00
21877;BME280;11103;43.788;23.710;2022-09-02T00:32:10;76773.53;;;19.75;100.00
21877;BME280;11103;43.788;23.710;2022-09-02T00:34:35;78046.25;;;19.38;100.00
21877;BME280;11103;43.788;23.710;2022-09-02T00:37:01;77394.38;;;19.82;100.00
21877;BME280;11103;43.788;23.710;2022-09-02T00:39:26;77015.25;;;19.76;100.00
21877;BME280;11103;43.788;23.710;2022-09-02T00:41:52;73175.81;;;19.64;100.00
21877;BME280;11103;43.788;23.710;2022-09-02T00:47:39;68033.63;;;19.59;100.00
21877;BME280;11103;43.788;23.710;2022-09-02T00:50:08;65632.97;;;19.70;100.00
21877;BME280;11103;43.788;23.710;2022-09-02T00:52:42;63848.69;;;19.74;100.00
21877;BME280;11103;43.788;23.710;2022-09-02T00:55:25;63088.94;;;19.69;100.00
21877;BME280;11103;43.788;23.710;2022-09-02T00:57:56;62875.88;;;19.86;100.00
21877;BME280;11103;43.788;23.710;2022-09-02T01:00:27;64464.59;;;20.01;100.00
21877;BME280;11103;43.788;23.710;2022-09-02T01:02:58;65118.09;;;20.03;100.00
21877;BME280;11103;43.788;23.710;2022-09-02T01:05:28;63628.34;;;20.05;100.00
21877;BME280;11103;43.788;23.710;2022-09-02T01:07:55;63245.38;;;20.03;100.00
21877;BME280;11103;43.788;23.710;2022-09-02T01:10:24;65322.84;;;20.20;100.00
21877;BME280;11103;43.788;23.710;2022-09-02T01:13:03;68416.94;;;20.06;100.00
21877;BME280;11103;43.788;23.710;2022-09-02T01:15:32;70237.25;;;20.12;100.00
21877;BME280;11103;43.788;23.710;2022-09-02T01:18:01;69265.75;;;20.20;100.00
21877;BME280;11103;43.788;23.710;2022-09-02T01:20:27;70298.81;;;20.25;100.00
21877;BME280;11103;43.788;23.710;2022-09-02T01:22:53;70485.34;;;20.10;100.00
21877;BME280;11103;43.788;23.710;2022-09-02T01:25:25;75089.28;;;20.20;100.00
21877;BME280;11103;43.788;23.710;2022-09-02T01:27:52;70746.56;;;20.00;100.00
21877;BME280;11103;43.788;23.710;2022-09-02T01:30:22;67475.28;;;20.04;100.00
21877;BME280;11103;43.788;23.710;2022-09-02T01:32:48;65860.19;;;20.14;100.00
21877;BME280;11103;43.788;23.710;2022-09-02T01:35:14;71214.59;;;19.96;100.00
21877;BME280;11103;43.788;23.710;2022-09-02T01:37:40;73234.22;;;20.02;100.00
21877;BME280;11103;43.788;23.710;2022-09-02T01:40:10;70869.56;;;20.19;100.00
21877;BME280;11103;43.788;23.710;2022-09-02T01:42:36;71983.03;;;20.20;100.00
21877;BME280;11103;43.788;23.710;2022-09-02T01:45:03;72526.53;;;20.27;100.00
21877;BME280;11103;43.788;23.710;2022-09-02T01:47:29;72967.53;;;20.23;100.00
21877;BME280;11103;43.788;23.710;2022-09-02T01:49:55;72765.94;;;20.33;100.00
21877;BME280;11103;43.788;23.710;2022-09-02T01:52:22;71592.44;;;20.24;100.00
21877;BME280;11103;43.788;23.710;2022-09-02T01:54:48;69566.22;;;20.30;100.00
21877;BME280;11103;43.788;23.710;2022-09-02T01:57:14;68823.09;;;20.41;100.00
21877;BME280;11103;43.788;23.710;2022-09-02T01:59:40;71101.75;;;20.30;100.00
21877;BME280;11103;43.788;23.710;2022-09-02T02:02:07;72542.72;;;20.30;100.00
21877;BME280;11103;43.788;23.710;2022-09-02T02:04:33;72242.19;;;20.21;100.00
21877;BME280;11103;43.788;23.710;2022-09-02T02:06:58;71362.84;;;20.22;100.00
21877;BME280;11103;43.788;23.710;2022-09-02T02:09:24;75592.97;;;20.44;100.00
21877;BME280;11103;43.788;23.710;2022-09-02T02:14:53;77542.06;;;20.31;100.00
21877;BME280;11103;43.788;23.710;2022-09-02T02:17:19;75973.47;;;20.23;100.00
21877;BME280;11103;43.788;23.710;2022-09-02T02:19:44;77339.44;;;20.36;100.00
21877;BME280;11103;43.788;23.710;2022-09-02T02:22:10;80432.72;;;20.14;100.00
21877;BME280;11103;43.788;23.710;2022-09-02T02:24:36;79298.16;;;20.25;100.00
21877;BME280;11103;43.788;23.710;2022-09-02T02:27:02;77788.28;;;20.41;100.00
21877;BME280;11103;43.788;23.710;2022-09-02T02:29:28;77393.09;;;20.37;100.00
21877;BME280;11103;43.788;23.710;2022-09-02T02:32:07;76801.97;;;20.41;100.00
21877;BME280;11103;43.788;23.710;2022-09-02T02:34:33;77660.06;;;20.41;100.00
21877;BME280;11103;43.788;23.710;2022-09-02T02:36:59;82063.22;;;20.35;100.00
21877;BME280;11103;43.788;23.710;2022-09-02T02:40:00;79895.69;;;20.37;100.00
21877;BME280;11103;43.788;23.710;2022-09-02T02:42:26;79973.72;;;20.29;100.00
21877;BME280;11103;43.788;23.710;2022-09-02T02:44:51;80414.47;;;20.24;100.00
21877;BME280;11103;43.788;23.710;2022-09-02T02:47:18;81138.97;;;20.24;100.00
21877;BME280;11103;43.788;23.710;2022-09-02T02:49:43;79366.91;;;20.26;100.00
21877;BME280;11103;43.788;23.710;2022-09-02T02:52:10;79954.69;;;20.29;100.00
21877;BME280;11103;43.788;23.710;2022-09-02T02:54:36;79811.88;;;20.16;100.00
21877;BME280;11103;43.788;23.710;2022-09-02T02:57:03;77259.81;;;20.13;100.00
21877;BME280;11103;43.788;23.710;2022-09-02T02:59:29;78128.31;;;20.19;100.00
21877;BME280;11103;43.788;23.710;2022-09-02T03:01:55;73903.97;;;20.28;100.00
21877;BME280;11103;43.788;23.710;2022-09-02T03:04:20;75478.09;;;20.24;100.00
21877;BME280;11103;43.788;23.710;2022-09-02T03:06:46;72712.69;;;20.00;100.00
21877;BME280;11103;43.788;23.710;2022-09-02T03:09:11;73201.84;;;20.26;100.00
21877;BME280;11103;43.788;23.710;2022-09-02T03:11:38;69351.03;;;20.22;100.00
21877;BME280;11103;43.788;23.710;2022-09-02T03:14:03;67118.06;;;19.90;100.00
21877;BME280;11103;43.788;23.710;2022-09-02T03:16:30;64232.34;;;20.17;100.00
21877;BME280;11103;43.788;23.710;2022-09-02T03:18:55;61343.81;;;20.16;100.00
21877;BME280;11103;43.788;23.710;2022-09-02T03:21:21;61201.56;;;20.10;100.00
21877;BME280;11103;43.788;23.710;2022-09-02T03:23:46;59415.13;;;20.01;100.00
21877;BME280;11103;43.788;23.710;2022-09-02T03:26:17;60859.78;;;20.22;100.00
21877;BME280;11103;43.788;23.710;2022-09-02T03:28:42;66477.84;;;19.93;100.00
21877;BME280;11103;43.788;23.710;2022-09-02T03:31:14;64553.28;;;19.82;100.00
21877;BME280;11103;43.788;23.710;2022-09-02T03:33:39;67541.81;;;19.94;100.00
21877;BME280;11103;43.788;23.710;2022-09-02T03:36:30;69741.22;;;19.95;100.00
21877;BME280;11103;43.788;23.710;2022-09-02T03:38:56;67970.06;;;19.83;100.00
21877;BME280;11103;43.788;23.710;2022-09-02T03:41:22;67096.03;;;19.71;100.00
21877;BME280;11103;43.788;23.710;2022-09-02T03:43:48;67891.06;;;19.69;100.00
21877;BME280;11103;43.788;23.710;2022-09-02T03:46:14;69966.13;;;19.82;100.00
21877;BME280;11103;43.788;23.710;2022-09-02T03:48:40;67818.00;;;19.85;100.00
21877;BME280;11103;43.788;23.710;2022-09-02T03:51:06;74087.84;;;19.71;100.00
21877;BME280;11103;43.788;23.710;2022-09-02T03:53:32;77920.03;;;19.71;100.00
21877;BME280;11103;43.788;23.710;2022-09-02T03:56:05;81893.09;;;19.69;100.00
21877;BME280;11103;43.788;23.710;2022-09-02T03:58:32;83346.53;;;19.55;100.00
21877;BME280;11103;43.788;23.710;2022-09-02T04:04:32;77565.31;;;19.73;100.00
21877;BME280;11103;43.788;23.710;2022-09-02T04:06:58;79409.38;;;19.68;100.00
21877;BME280;11103;43.788;23.710;2022-09-02T04:09:24;79831.19;;;19.71;100.00
21877;BME280;11103;43.788;23.710;2022-09-02T04:11:49;78586.09;;;19.45;100.00
21877;BME280;11103;43.788;23.710;2022-09-02T04:14:24;79957.97;;;19.60;100.00
21877;BME280;11103;43.788;23.710;2022-09-02T04:16:49;80558.75;;;19.59;100.00
21877;BME280;11103;43.788;23.710;2022-09-02T04:19:15;86748.66;;;19.59;100.00
21877;BME280;11103;43.788;23.710;2022-09-02T04:21:41;86190.78;;;19.52;100.00
21877;BME280;11103;43.788;23.710;2022-09-02T04:24:08;82265.34;;;19.56;100.00
21877;BME280;11103;43.788;23.710;2022-09-02T04:26:35;84315.00;;;19.40;100.00
21877;BME280;11103;43.788;23.710;2022-09-02T04:29:02;81344.03;;;19.37;100.00
21877;BME280;11103;43.788;23.710;2022-09-02T04:31:28;77273.13;;;19.40;100.00
21877;BME280;11103;43.788;23.710;2022-09-02T04:33:57;80825.78;;;19.39;100.00
21877;BME280;11103;43.788;23.710;2022-09-02T04:36:23;79834.03;;;19.34;100.00
21877;BME280;11103;43.788;23.710;2022-09-02T04:38:50;79030.47;;;19.35;100.00
21877;BME280;11103;43.788;23.710;2022-09-02T04:41:18;81992.88;;;19.34;100.00
21877;BME280;11103;43.788;23.710;2022-09-02T04:43:45;82406.22;;;19.23;100.00
21877;BME280;11103;43.788;23.710;2022-09-02T04:46:15;82421.47;;;19.19;100.00
21877;BME280;11103;43.788;23.710;2022-09-02T04:48:42;80360.56;;;19.41;100.00
21877;BME280;11103;43.788;23.710;2022-09-02T04:51:17;80244.19;;;19.40;100.00
21877;BME280;11103;43.788;23.710;2022-09-02T04:53:43;78300.09;;;19.17;100.00
21877;BME280;11103;43.788;23.710;2022-09-02T04:56:11;82956.88;;;19.40;100.00
21877;BME280;11103;43.788;23.710;2022-09-02T04:58:39;80419.78;;;19.46;100.00
21877;BME280;11103;43.788;23.710;2022-09-02T05:01:11;78248.00;;;19.52;100.00
21877;BME280;11103;43.788;23.710;2022-09-02T05:03:39;76691.63;;;19.56;100.00
21877;BME280;11103;43.788;23.710;2022-09-02T05:06:08;84096.84;;;19.43;100.00
21877;BME280;11103;43.788;23.710;2022-09-02T05:08:39;83136.66;;;19.29;100.00
21877;BME280;11103;43.788;23.710;2022-09-02T05:11:12;82573.25;;;19.43;100.00
21877;BME280;11103;43.788;23.710;2022-09-02T05:13:39;83011.81;;;19.29;100.00
21877;BME280;11103;43.788;23.710;2022-09-02T05:16:06;79594.03;;;19.31;100.00
21877;BME280;11103;43.788;23.710;2022-09-02T05:18:31;78163.34;;;19.26;100.00
21877;BME280;11103;43.788;23.710;2022-09-02T05:20:57;74432.69;;;19.32;100.00
21877;BME280;11103;43.788;23.710;2022-09-02T05:23:22;77549.53;;;19.24;100.00
21877;BME280;11103;43.788;23.710;2022-09-02T05:25:48;80720.88;;;19.35;100.00
21877;BME280;11103;43.788;23.710;2022-09-02T05:28:14;84065.50;;;19.20;100.00
21877;BME280;11103;43.788;23.710;2022-09-02T05:30:41;85365.47;;;19.25;100.00
21877;BME280;11103;43.788;23.710;2022-09-02T05:33:07;86384.22;;;19.23;100.00
21877;BME280;11103;43.788;23.710;2022-09-02T05:35:33;86143.41;;;19.20;100.00
21877;BME280;11103;43.788;23.710;2022-09-02T05:37:59;87106.53;;;19.11;100.00
21877;BME280;11103;43.788;23.710;2022-09-02T05:40:25;88722.25;;;19.07;100.00
21877;BME280;11103;43.788;23.710;2022-09-02T05:42:50;90426.16;;;18.70;100.00
21877;BME280;11103;43.788;23.710;2022-09-02T05:45:17;94409.06;;;19.13;100.00
21877;BME280;11103;43.788;23.710;2022-09-02T05:47:43;99540.69;;;19.10;100.00
21877;BME280;11103;43.788;23.710;2022-09-02T05:50:08;100796.69;;;18.85;100.00
21877;BME280;11103;43.788;23.710;2022-09-02T05:52:36;98699.50;;;19.03;100.00
21877;BME280;11103;43.788;23.710;2022-09-02T05:55:02;95612.47;;;18.91;100.00
21877;BME280;11103;43.788;23.710;2022-09-02T05:57:28;102735.47;;;19.01;100.00
21877;BME280;11103;43.788;23.710;2022-09-02T05:59:53;104231.22;;;19.04;100.00
21877;BME280;11103;43.788;23.710;2022-09-02T06:02:20;105073.66;;;18.94;100.00
21877;BME280;11103;43.788;23.710;2022-09-02T06:04:49;104230.16;;;18.97;100.00
21877;BME280;11103;43.788;23.710;2022-09-02T06:07:34;112023.66;;;18.81;100.00
21877;BME280;11103;43.788;23.710;2022-09-02T06:10:00;108745.69;;;18.84;100.00
21877;BME280;11103;43.788;23.710;2022-09-02T06:12:26;110235.59;;;18.90;100.00
21877;BME280;11103;43.788;23.710;2022-09-02T06:15:20;109974.00;;;18.98;100.00
21877;BME280;11103;43.788;23.710;2022-09-02T06:17:45;113827.41;;;18.98;100.00
21877;BME280;11103;43.788;23.710;2022-09-02T06:20:11;112681.34;;;18.68;100.00
21877;BME280;11103;43.788;23.710;2022-09-02T06:22:36;115779.59;;;18.84;100.00
21877;BME280;11103;43.788;23.710;2022-09-02T06:25:02;121456.13;;;18.63;100.00
21877;BME280;11103;43.788;23.710;2022-09-02T06:27:27;120513.97;;;18.84;100.00
21877;BME280;11103;43.788;23.710;2022-09-02T06:29:53;116446.84;;;18.75;100.00
21877;BME280;11103;43.788;23.710;2022-09-02T06:32:44;119998.50;;;18.80;100.00
21877;BME280;11103;43.788;23.710;2022-09-02T06:35:11;121043.16;;;18.58;100.00
21877;BME280;11103;43.788;23.710;2022-09-02T06:37:38;121512.63;;;18.64;100.00
21877;BME280;11103;43.788;23.710;2022-09-02T06:40:04;122756.34;;;18.85;100.00
21877;BME280;11103;43.788;23.710;2022-09-02T06:42:30;126047.06;;;18.87;100.00
21877;BME280;11103;43.788;23.710;2022-09-02T06:44:55;127169.34;;;18.87;100.00
21877;BME280;11103;43.788;23.710;2022-09-02T06:47:21;132624.84;;;18.86;100.00
21877;BME280;11103;43.788;23.710;2022-09-02T06:49:48;136694.06;;;18.79;100.00
21877;BME280;11103;43.788;23.710;2022-09-02T06:52:14;133355.53;;;18.65;100.00
21877;BME280;11103;43.788;23.710;2022-09-02T06:54:55;132692.47;;;18.69;100.00
21877;BME280;11103;43.788;23.710;2022-09-02T06:57:20;131370.97;;;18.86;100.00
21877;BME280;11103;43.788;23.710;2022-09-02T06:59:46;135385.50;;;18.80;100.00
21877;BME280;11103;43.788;23.710;2022-09-02T07:02:12;133001.00;;;18.87;100.00
21877;BME280;11103;43.788;23.710;2022-09-02T07:04:39;130286.44;;;18.85;100.00
21877;BME280;11103;43.788;23.710;2022-09-02T07:07:23;127705.13;;;18.85;100.00
21877;BME280;11103;43.788;23.710;2022-09-02T07:09:49;130067.63;;;18.70;100.00
21877;BME280;11103;43.788;23.710;2022-09-02T07:12:15;134454.78;;;18.64;100.00
21877;BME280;11103;43.788;23.710;2022-09-02T07:14:42;131866.56;;;18.73;100.00
21877;BME280;11103;43.788;23.710;2022-09-02T07:17:15;127940.81;;;18.62;100.00
21877;BME280;11103;43.788;23.710;2022-09-02T07:19:48;130247.28;;;18.80;100.00
21877;BME280;11103;43.788;23.710;2022-09-02T07:22:13;131905.00;;;18.63;100.00
21877;BME280;11103;43.788;23.710;2022-09-02T07:24:39;130928.09;;;18.74;100.00
21877;BME280;11103;43.788;23.710;2022-09-02T07:27:05;127438.47;;;18.53;100.00
21877;BME280;11103;43.788;23.710;2022-09-02T07:29:32;131928.59;;;18.57;100.00
21877;BME280;11103;43.788;23.710;2022-09-02T07:31:57;133944.97;;;18.73;100.00
21877;BME280;11103;43.788;23.710;2022-09-02T07:34:23;124716.88;;;18.65;100.00
21877;BME280;11103;43.788;23.710;2022-09-02T07:36:49;123159.44;;;18.78;100.00
21877;BME280;11103;43.788;23.710;2022-09-02T07:39:15;122787.13;;;18.79;100.00
21877;BME280;11103;43.788;23.710;2022-09-02T07:41:44;127990.25;;;18.81;100.00
21877;BME280;11103;43.788;23.710;2022-09-02T07:44:11;127978.47;;;18.55;100.00
21877;BME280;11103;43.788;23.710;2022-09-02T07:46:37;121692.50;;;18.73;100.00
21877;BME280;11103;43.788;23.710;2022-09-02T07:49:06;124159.03;;;18.95;100.00
21877;BME280;11103;43.788;23.710;2022-09-02T07:51:33;124927.28;;;18.91;100.00
21877;BME280;11103;43.788;23.710;2022-09-02T07:54:00;129752.13;;;18.83;100.00
21877;BME280;11103;43.788;23.710;2022-09-02T07:56:25;134079.13;;;19.02;100.00
21877;BME280;11103;43.788;23.710;2022-09-02T07:58:51;133638.94;;;18.76;100.00
21877;BME280;11103;43.788;23.710;2022-09-02T08:01:17;133154.81;;;19.05;100.00
21877;BME280;11103;43.788;23.710;2022-09-02T08:03:43;135727.50;;;18.93;100.00
21877;BME280;11103;43.788;23.710;2022-09-02T08:06:10;131188.72;;;18.91;100.00
21877;BME280;11103;43.788;23.710;2022-09-02T08:08:36;130752.94;;;18.91;100.00
21877;BME280;11103;43.788;23.710;2022-09-02T08:11:02;130740.91;;;19.07;100.00
21877;BME280;11103;43.788;23.710;2022-09-02T08:13:28;130132.84;;;18.91;100.00
21877;BME280;11103;43.788;23.710;2022-09-02T08:15:53;128720.78;;;19.12;100.00
21877;BME280;11103;43.788;23.710;2022-09-02T08:18:19;137734.06;;;19.08;100.00
21877;BME280;11103;43.788;23.710;2022-09-02T08:20:45;136096.59;;;19.13;100.00
21877;BME280;11103;43.788;23.710;2022-09-02T08:23:12;130752.28;;;19.24;100.00
21877;BME280;11103;43.788;23.710;2022-09-02T08:25:38;131580.41;;;19.26;100.00
21877;BME280;11103;43.788;23.710;2022-09-02T08:28:20;142968.94;;;19.15;100.00
21877;BME280;11103;43.788;23.710;2022-09-02T08:30:45;139675.94;;;19.09;100.00
21877;BME280;11103;43.788;23.710;2022-09-02T08:33:11;134253.44;;;19.00;100.00
21877;BME280;11103;43.788;23.710;2022-09-02T08:35:37;131139.34;;;18.95;100.00
21877;BME280;11103;43.788;23.710;2022-09-02T08:38:02;129200.88;;;18.92;100.00
21877;BME280;11103;43.788;23.710;2022-09-02T08:40:39;131590.81;;;18.93;100.00
21877;BME280;11103;43.788;23.710;2022-09-02T08:45:45;137115.53;;;18.94;100.00
21877;BME280;11103;43.788;23.710;2022-09-02T08:54:05;130760.31;;;18.95;100.00
21877;BME280;11103;43.788;23.710;2022-09-02T08:56:32;132615.41;;;18.87;100.00
21877;BME280;11103;43.788;23.710;2022-09-02T08:58:57;130980.56;;;18.88;100.00
21877;BME280;11103;43.788;23.710;2022-09-02T09:12:27;135054.81;;;19.00;100.00
21877;BME280;11103;43.788;23.710;2022-09-02T09:20:21;126148.84;;;19.23;100.00
21877;BME280;11103;43.788;23.710;2022-09-02T09:22:50;120947.53;;;19.23;100.00
21877;BME280;11103;43.788;23.710;2022-09-02T09:25:17;124992.41;;;19.27;100.00
21877;BME280;11103;43.788;23.710;2022-09-02T09:27:43;131109.19;;;19.33;100.00
21877;BME280;11103;43.788;23.710;2022-09-02T09:30:12;131271.16;;;19.17;100.00
21877;BME280;11103;43.788;23.710;2022-09-02T09:32:47;123218.00;;;19.29;100.00
21877;BME280;11103;43.788;23.710;2022-09-02T09:35:15;121834.47;;;19.40;100.00
21877;BME280;11103;43.788;23.710;2022-09-02T09:37:46;124935.66;;;19.60;100.00
21877;BME280;11103;43.788;23.710;2022-09-02T09:45:28;124539.41;;;19.55;100.00
21877;BME280;11103;43.788;23.710;2022-09-02T09:48:22;126431.94;;;19.72;100.00
21877;BME280;11103;43.788;23.710;2022-09-02T09:53:24;129067.72;;;19.42;100.00
21877;BME280;11103;43.788;23.710;2022-09-02T09:55:53;123748.44;;;19.91;100.00
21877;BME280;11103;43.788;23.710;2022-09-02T09:58:29;126849.41;;;19.91;100.00
21877;BME280;11103;43.788;23.710;2022-09-02T10:00:56;128163.72;;;19.82;100.00
21877;BME280;11103;43.788;23.710;2022-09-02T10:03:28;130061.53;;;19.98;100.00
21877;BME280;11103;43.788;23.710;2022-09-02T10:05:56;129385.63;;;20.02;100.00
21877;BME280;11103;43.788;23.710;2022-09-02T10:08:28;128417.84;;;20.06;100.00
21877;BME280;11103;43.788;23.710;2022-09-02T10:11:02;127429.94;;;20.08;100.00
21877;BME280;11103;43.788;23.710;2022-09-02T10:13:31;130643.88;;;20.08;100.00
21877;BME280;11103;43.788;23.710;2022-09-02T10:27:06;135535.91;;;19.76;100.00
21877;BME280;11103;43.788;23.710;2022-09-02T10:30:15;131146.31;;;19.75;100.00
21877;BME280;11103;43.788;23.710;2022-09-02T10:33:12;132414.09;;;19.75;100.00
21877;BME280;11103;43.788;23.710;2022-09-02T10:35:45;130131.72;;;19.77;100.00
21877;BME280;11103;43.788;23.710;2022-09-02T10:38:18;130371.91;;;19.80;100.00
21877;BME280;11103;43.788;23.710;2022-09-02T10:40:57;131686.88;;;19.81;100.00
21877;BME280;11103;43.788;23.710;2022-09-02T10:46:16;120512.69;;;19.89;100.00
21877;BME280;11103;43.788;23.710;2022-09-02T10:55:11;120090.88;;;19.88;100.00
21877;BME280;11103;43.788;23.710;2022-09-02T11:00:16;126732.66;;;19.75;100.00
21877;BME280;11103;43.788;23.710;2022-09-02T11:05:18;114395.69;;;19.82;100.00
21877;BME280;11103;43.788;23.710;2022-09-02T11:08:13;113418.47;;;20.02;100.00
21877;BME280;11103;43.788;23.710;2022-09-02T11:10:40;114309.06;;;20.08;100.00
21877;BME280;11103;43.788;23.710;2022-09-02T11:13:20;111797.63;;;20.03;100.00
21877;BME280;11103;43.788;23.710;2022-09-02T11:16:09;114738.19;;;20.08;100.00
21877;BME280;11103;43.788;23.710;2022-09-02T11:24:01;116682.03;;;19.95;100.00
21877;BME280;11103;43.788;23.710;2022-09-02T11:26:37;117718.53;;;20.16;100.00
21877;BME280;11103;43.788;23.710;2022-09-02T11:31:47;118090.38;;;20.18;100.00
21877;BME280;11103;43.788;23.710;2022-09-02T11:37:03;110521.03;;;20.06;100.00
21877;BME280;11103;43.788;23.710;2022-09-02T11:42:31;116746.97;;;20.09;100.00
21877;BME280;11103;43.788;23.710;2022-09-02T11:47:42;112305.88;;;20.10;100.00
21877;BME280;11103;43.788;23.710;2022-09-02T11:52:49;113807.69;;;20.22;100.00
21877;BME280;11103;43.788;23.710;2022-09-02T11:55:42;113085.09;;;20.26;100.00
21877;BME280;11103;43.788;23.710;2022-09-02T11:58:11;113038.59;;;20.16;100.00
21877;BME280;11103;43.788;23.710;2022-09-02T12:03:22;109622.78;;;20.23;100.00
21877;BME280;11103;43.788;23.710;2022-09-02T12:06:04;111428.03;;;20.23;100.00
21877;BME280;11103;43.788;23.710;2022-09-02T12:11:03;109108.06;;;20.32;100.00
21877;BME280;11103;43.788;23.710;2022-09-02T12:13:44;105884.28;;;20.47;100.00
21877;BME280;11103;43.788;23.710;2022-09-02T12:18:45;101634.06;;;20.53;100.00
21877;BME280;11103;43.788;23.710;2022-09-02T12:21:33;104005.63;;;20.51;100.00
21877;BME280;11103;43.788;23.710;2022-09-02T12:24:10;101026.97;;;20.58;100.00
21877;BME280;11103;43.788;23.710;2022-09-02T12:31:41;105744.28;;;20.61;100.00
21877;BME280;11103;43.788;23.710;2022-09-02T12:36:51;106114.47;;;20.59;100.00
21877;BME280;11103;43.788;23.710;2022-09-02T12:52:05;107097.47;;;20.64;100.00
21877;BME280;11103;43.788;23.710;2022-09-02T12:54:43;107596.91;;;20.70;100.00
21877;BME280;11103;43.788;23.710;2022-09-02T12:57:12;105267.75;;;20.65;100.00
21877;BME280;11103;43.788;23.710;2022-09-02T12:59:40;105058.03;;;20.54;100.00
21877;BME280;11103;43.788;23.710;2022-09-02T13:10:41;90775.69;;;20.84;100.00
21877;BME280;11103;43.788;23.710;2022-09-02T13:13:36;93674.31;;;20.94;100.00
21877;BME280;11103;43.788;23.710;2022-09-02T13:19:11;89213.56;;;21.05;100.00
21877;BME280;11103;43.788;23.710;2022-09-02T13:29:58;98650.47;;;21.30;100.00
21877;BME280;11103;43.788;23.710;2022-09-02T13:32:28;104742.88;;;21.30;100.00
21877;BME280;11103;43.788;23.710;2022-09-02T13:34:56;107128.19;;;21.27;100.00
21877;BME280;11103;43.788;23.710;2022-09-02T13:37:35;98092.56;;;21.41;100.00
21877;BME280;11103;43.788;23.710;2022-09-02T13:40:23;103585.53;;;21.39;100.00
21877;BME280;11103;43.788;23.710;2022-09-02T13:42:54;100902.94;;;21.18;100.00
21877;BME280;11103;43.788;23.710;2022-09-02T13:45:25;97396.50;;;21.42;100.00
21877;BME280;11103;43.788;23.710;2022-09-02T13:47:53;100655.22;;;20.89;100.00
21877;BME280;11103;43.788;23.710;2022-09-02T13:50:25;100549.78;;;21.34;100.00
21877;BME280;11103;43.788;23.710;2022-09-02T13:52:55;105267.84;;;21.14;100.00
21877;BME280;11103;43.788;23.710;2022-09-02T13:55:21;102645.88;;;21.04;100.00
21877;BME280;11103;43.788;23.710;2022-09-02T14:00:39;98706.88;;;21.15;100.00
21877;BME280;11103;43.788;23.710;2022-09-02T14:03:25;102150.78;;;21.09;100.00
21877;BME280;11103;43.788;23.710;2022-09-02T14:05:52;94149.19;;;21.16;100.00
21877;BME280;11103;43.788;23.710;2022-09-02T14:08:22;89744.28;;;21.10;100.00
21877;BME280;11103;43.788;23.710;2022-09-02T14:10:49;92548.63;;;21.14;100.00
21877;BME280;11103;43.788;23.710;2022-09-02T14:13:17;98261.75;;;21.00;100.00
21877;BME280;11103;43.788;23.710;2022-09-02T14:15:43;89474.19;;;21.19;100.00
21877;BME280;11103;43.788;23.710;2022-09-02T14:18:12;96088.84;;;21.16;100.00
21877;BME280;11103;43.788;23.710;2022-09-02T14:20:58;91811.53;;;21.07;100.00
21877;BME280;11103;43.788;23.710;2022-09-02T14:23:29;86679.13;;;21.13;100.00
21877;BME280;11103;43.788;23.710;2022-09-02T14:25:59;83685.38;;;21.16;100.00
21877;BME280;11103;43.788;23.710;2022-09-02T14:28:32;88262.75;;;21.41;100.00
21877;BME280;11103;43.788;23.710;2022-09-02T14:31:05;91059.81;;;21.42;100.00
21877;BME280;11103;43.788;23.710;2022-09-02T14:51:45;91492.78;;;21.05;100.00
21877;BME280;11103;43.788;23.710;2022-09-02T14:54:47;86775.28;;;21.03;100.00
21877;BME280;11103;43.788;23.710;2022-09-02T14:59:57;81125.91;;;21.18;100.00
21877;BME280;11103;43.788;23.710;2022-09-02T15:04:55;76466.38;;;21.12;100.00
21877;BME280;11103;43.788;23.710;2022-09-02T15:07:21;77729.22;;;21.05;100.00
21877;BME280;11103;43.788;23.710;2022-09-02T15:09:47;73629.47;;;21.00;100.00
21877;BME280;11103;43.788;23.710;2022-09-02T15:15:23;70274.75;;;20.81;100.00
21877;BME280;11103;43.788;23.710;2022-09-02T15:17:49;68395.03;;;21.06;100.00
21877;BME280;11103;43.788;23.710;2022-09-02T15:20:15;65716.56;;;21.06;100.00
21877;BME280;11103;43.788;23.710;2022-09-02T15:22:40;63925.25;;;21.03;100.00
21877;BME280;11103;43.788;23.710;2022-09-02T15:25:07;61572.63;;;21.05;100.00
21877;BME280;11103;43.788;23.710;2022-09-02T15:27:33;62531.97;;;21.02;100.00
21877;BME280;11103;43.788;23.710;2022-09-02T15:32:26;57239.09;;;21.04;100.00
21877;BME280;11103;43.788;23.710;2022-09-02T15:34:52;58958.47;;;20.99;100.00
21877;BME280;11103;43.788;23.710;2022-09-02T15:37:18;57423.78;;;20.96;100.00
21877;BME280;11103;43.788;23.710;2022-09-02T15:39:43;55321.81;;;20.91;100.00